logo
Rechercher aéroport 
image banner adimage banner adimage banner ad
image banner ad

VT57 - Malletts Head

Situé à Colchester, United States

ICAO - VT57, IATA -

Données fournies par Airmate  

Information générale

Coordonnées: N44°33'38" W73°14'25"
Élévation : 95 feet MSL.
Variation magnétique : -15° East
Voir autres Aéroports à Vermont

Données opérationnelles

Special qualification required
Heure actuelle UTC:
Heure actuelle locale:
METAR: KBTV 251754Z 10003KT 10SM FEW100 BKN200 21/03 A2987 RMK AO2 SLP114 T02060033 10211 20128 58013
TAF: KBTV 251731Z 2518/2618 VRB03KT P6SM SCT230 FM260700 00000KT P6SM VCSH BKN035 FM261400 VRB03KT P6SM BKN080
Voir NOTAMs / SUP AIP / TFR affectant cet aéroport [VIEW]
Fréquences de communication: [VIEW]

Pistes:

Identifiant RWYQFULongueur (ft)Largeur (ft)SurfaceLDA (ft)
12W30002000WATER
30W30002000WATER

Coordonnées de l'aéroport

Adresse: Colchester United States

Vue satellite de VT57